createdAt,value
2018-04-07T00:00:16.336Z,3.70
2018-04-07T00:02:43.034Z,3.30
2018-04-07T00:05:09.720Z,3.37
2018-04-07T00:07:36.461Z,3.50
2018-04-07T00:10:03.168Z,4.37
2018-04-07T00:12:29.849Z,3.43
2018-04-07T00:14:56.621Z,3.03
2018-04-07T00:17:23.456Z,4.27
2018-04-07T00:19:50.176Z,4.23
2018-04-07T00:22:16.857Z,4.30
2018-04-07T00:24:43.544Z,3.93
2018-04-07T00:27:10.217Z,3.73
2018-04-07T00:29:36.893Z,3.80
2018-04-07T00:32:03.737Z,3.67
2018-04-07T00:34:30.497Z,3.83
2018-04-07T00:36:57.365Z,3.83
2018-04-07T00:39:24.051Z,3.23
2018-04-07T00:41:50.749Z,4.13
2018-04-07T00:44:17.420Z,3.53
2018-04-07T00:46:44.100Z,3.77
2018-04-07T00:49:10.865Z,4.17
2018-04-07T00:51:37.538Z,3.80
2018-04-07T00:54:04.242Z,3.87
2018-04-07T00:56:30.929Z,3.53
2018-04-07T00:58:57.645Z,4.13
2018-04-07T01:01:24.313Z,3.03
2018-04-07T01:03:51.028Z,3.60
2018-04-07T01:06:17.724Z,3.43
2018-04-07T01:08:44.581Z,3.97
2018-04-07T01:11:11.271Z,3.70
2018-04-07T01:13:38.112Z,3.60
2018-04-07T01:16:04.820Z,3.90
2018-04-07T01:18:31.728Z,3.90
2018-04-07T01:20:58.416Z,4.40
2018-04-07T01:23:25.109Z,3.20
2018-04-07T01:25:51.769Z,3.30
2018-04-07T01:28:18.466Z,4.00
2018-04-07T01:30:45.153Z,3.93
2018-04-07T01:33:11.844Z,3.60
2018-04-07T01:35:38.629Z,3.63
2018-04-07T01:38:05.408Z,3.70
2018-04-07T01:40:32.076Z,4.10
2018-04-07T01:42:58.780Z,4.27
2018-04-07T01:45:25.463Z,4.20
2018-04-07T01:47:52.133Z,4.30
2018-04-07T01:50:18.824Z,3.30
2018-04-07T01:52:45.496Z,3.90
2018-04-07T01:55:12.192Z,3.93
2018-04-07T01:57:38.916Z,4.20
2018-04-07T02:00:05.608Z,3.93
2018-04-07T02:02:32.308Z,4.37
2018-04-07T02:04:59.125Z,3.73
2018-04-07T02:07:25.797Z,4.13
2018-04-07T02:09:52.717Z,4.60
2018-04-07T02:12:19.408Z,4.03
2018-04-07T02:14:46.245Z,3.87
2018-04-07T02:17:12.945Z,4.10
2018-04-07T02:19:39.677Z,4.43
2018-04-07T02:22:06.362Z,4.13
2018-04-07T02:24:34.010Z,4.33
2018-04-07T02:27:00.712Z,4.27
2018-04-07T02:29:27.380Z,4.57
2018-04-07T02:31:54.080Z,4.30
2018-04-07T02:34:20.823Z,5.00
2018-04-07T02:36:47.505Z,4.63
2018-04-07T02:39:14.197Z,3.60
2018-04-07T02:41:40.872Z,4.80
2018-04-07T02:44:07.587Z,4.80
2018-04-07T02:46:34.280Z,5.57
2018-04-07T02:49:00.964Z,5.23
2018-04-07T02:51:27.672Z,4.37
2018-04-07T02:53:54.333Z,5.10
2018-04-07T02:56:21.033Z,4.50
2018-04-07T02:58:47.857Z,4.50
2018-04-07T03:01:14.561Z,4.53
2018-04-07T03:03:41.239Z,4.23
2018-04-07T03:06:07.961Z,4.40
2018-04-07T03:08:34.782Z,4.80
2018-04-07T03:11:01.473Z,4.80
2018-04-07T03:13:28.324Z,5.23
2018-04-07T03:15:54.993Z,4.97
2018-04-07T03:18:21.656Z,4.53
2018-04-07T03:20:48.500Z,4.53
2018-04-07T03:23:15.182Z,4.90
2018-04-07T03:25:41.849Z,5.33
2018-04-07T03:28:08.600Z,5.03
2018-04-07T03:30:35.393Z,5.93
2018-04-07T03:33:02.140Z,5.07
2018-04-07T03:35:28.832Z,5.37
2018-04-07T03:37:55.513Z,5.53
2018-04-07T03:40:22.400Z,5.53
2018-04-07T03:42:49.090Z,4.87
2018-04-07T03:45:15.765Z,5.30
2018-04-07T03:47:42.553Z,5.37
2018-04-07T03:50:09.229Z,4.90
2018-04-07T03:52:35.945Z,5.37
2018-04-07T03:55:02.668Z,6.03
2018-04-07T03:57:29.364Z,4.53
2018-04-07T03:59:56.051Z,5.20
2018-04-07T04:02:22.754Z,5.37
2018-04-07T04:04:49.602Z,5.47
2018-04-07T04:07:16.368Z,5.33
2018-04-07T04:09:43.065Z,6.00
2018-04-07T04:12:09.771Z,5.20
2018-04-07T04:14:36.440Z,5.07
2018-04-07T04:17:03.144Z,4.70
2018-04-07T04:19:29.893Z,5.50
2018-04-07T04:21:56.629Z,5.60
2018-04-07T04:24:23.306Z,5.83
2018-04-07T04:26:49.981Z,5.27
2018-04-07T04:29:16.829Z,5.40
2018-04-07T04:31:43.521Z,5.70
2018-04-07T04:34:10.273Z,6.20
2018-04-07T04:36:36.949Z,5.37
2018-04-07T04:39:03.717Z,5.80
2018-04-07T04:41:30.387Z,5.80
2018-04-07T04:43:57.088Z,6.20
2018-04-07T04:46:23.766Z,5.70
2018-04-07T04:48:50.486Z,6.50
2018-04-07T04:51:17.173Z,6.20
2018-04-07T04:53:43.857Z,5.77
2018-04-07T04:56:10.620Z,4.33
2018-04-07T04:58:37.296Z,5.60
2018-04-07T05:01:03.985Z,5.90
2018-04-07T05:03:30.683Z,5.70
2018-04-07T05:05:57.456Z,4.70
2018-04-07T05:08:24.132Z,4.87
2018-04-07T05:10:50.824Z,5.93
2018-04-07T05:13:17.574Z,5.67
2018-04-07T05:15:44.264Z,5.40
2018-04-07T05:18:10.933Z,6.33
2018-04-07T05:20:37.672Z,5.63
2018-04-07T05:23:04.355Z,7.13
2018-04-07T05:25:31.049Z,5.90
2018-04-07T05:27:57.744Z,6.90
2018-04-07T05:30:24.564Z,6.30
2018-04-07T05:32:51.256Z,6.20
2018-04-07T05:35:18.092Z,6.50
2018-04-07T05:37:44.786Z,6.23
2018-04-07T05:40:11.596Z,6.50
2018-04-07T05:42:38.275Z,6.40
2018-04-07T05:45:04.985Z,6.03
2018-04-07T05:47:31.654Z,5.83
2018-04-07T05:49:58.328Z,7.60
2018-04-07T05:52:25.019Z,6.77
2018-04-07T05:54:51.717Z,5.50
2018-04-07T05:57:18.386Z,7.10
2018-04-07T05:59:45.231Z,6.10
2018-04-07T06:02:11.921Z,5.40
2018-04-07T06:04:38.651Z,5.80
2018-04-07T06:07:05.301Z,7.40
2018-04-07T06:09:31.985Z,6.20
2018-04-07T06:11:58.736Z,6.43
2018-04-07T06:14:25.474Z,6.37
2018-04-07T06:16:52.174Z,7.47
2018-04-07T06:19:18.858Z,6.20
2018-04-07T06:21:45.604Z,7.10
2018-04-07T06:24:12.280Z,6.93
2018-04-07T06:26:39.164Z,6.63
2018-04-07T06:29:05.848Z,6.73
2018-04-07T06:31:32.561Z,6.70
2018-04-07T06:33:59.272Z,7.00
2018-04-07T06:36:26.008Z,7.13
2018-04-07T06:38:52.672Z,6.87
2018-04-07T06:41:19.380Z,8.50
2018-04-07T06:43:46.264Z,6.70
2018-04-07T06:46:13.068Z,6.63
2018-04-07T06:48:39.780Z,7.67
2018-04-07T06:51:06.450Z,6.33
2018-04-07T06:53:33.184Z,6.87
2018-04-07T06:55:59.957Z,6.57
2018-04-07T06:58:26.644Z,6.73
2018-04-07T07:00:53.340Z,7.27
2018-04-07T07:03:20.025Z,7.07
2018-04-07T07:05:46.758Z,7.50
2018-04-07T07:08:13.520Z,7.03
2018-04-07T07:10:40.258Z,6.50
2018-04-07T07:13:06.920Z,6.90
2018-04-07T07:15:33.817Z,7.67
2018-04-07T07:18:00.518Z,7.53
2018-04-07T07:20:27.224Z,7.07
2018-04-07T07:22:53.897Z,7.50
2018-04-07T07:25:20.584Z,7.10
2018-04-07T07:27:47.349Z,7.60
2018-04-07T07:30:14.113Z,7.80
2018-04-07T07:32:40.860Z,7.20
2018-04-07T07:35:07.737Z,8.70
2018-04-07T07:37:34.428Z,7.90
2018-04-07T07:40:01.121Z,6.83
2018-04-07T07:42:27.820Z,7.87
2018-04-07T07:44:54.571Z,7.30
2018-04-07T07:47:21.316Z,8.03
2018-04-07T07:49:48.172Z,6.37
2018-04-07T07:52:14.841Z,7.20
2018-04-07T07:54:41.554Z,8.03
2018-04-07T07:57:08.237Z,6.83
2018-04-07T07:59:34.908Z,7.20
2018-04-07T08:02:01.611Z,6.70
2018-04-07T08:04:28.316Z,7.10
2018-04-07T08:06:55.275Z,6.43
2018-04-07T08:09:22.049Z,7.17
2018-04-07T08:11:48.757Z,7.93
2018-04-07T08:14:15.430Z,7.10
2018-04-07T08:16:42.257Z,8.13
2018-04-07T08:19:09.004Z,7.60
2018-04-07T08:21:35.745Z,7.23
2018-04-07T08:24:02.473Z,8.87
2018-04-07T08:26:29.209Z,6.63
2018-04-07T08:28:55.872Z,7.00
2018-04-07T08:31:22.553Z,7.60
2018-04-07T08:33:49.301Z,6.67
2018-04-07T08:36:16.050Z,7.80
2018-04-07T08:38:42.769Z,7.53
2018-04-07T08:41:09.432Z,7.20
2018-04-07T08:43:36.142Z,7.50
2018-04-07T08:46:02.813Z,6.87
2018-04-07T08:48:29.521Z,7.77
2018-04-07T08:50:56.292Z,7.90
2018-04-07T08:53:23.008Z,7.10
2018-04-07T08:55:49.741Z,7.70
2018-04-07T08:58:16.428Z,7.47
2018-04-07T09:00:43.136Z,7.43
2018-04-07T09:03:09.853Z,7.67
2018-04-07T09:05:36.685Z,7.67
2018-04-07T09:08:03.360Z,7.53
2018-04-07T09:10:30.174Z,7.33
2018-04-07T09:12:56.848Z,6.90
2018-04-07T09:15:23.625Z,6.87
2018-04-07T09:17:50.330Z,7.10
2018-04-07T09:20:17.017Z,7.60
2018-04-07T09:22:43.764Z,6.80
2018-04-07T09:25:10.558Z,7.03
2018-04-07T09:27:37.233Z,8.00
2018-04-07T09:30:04.045Z,7.20
2018-04-07T09:32:30.729Z,7.40
2018-04-07T09:34:57.500Z,7.83
2018-04-07T09:37:24.201Z,7.00
2018-04-07T09:39:51.154Z,8.57
2018-04-07T09:42:17.825Z,7.70
2018-04-07T09:44:44.528Z,6.60
2018-04-07T09:47:11.201Z,6.83
2018-04-07T09:49:38.048Z,6.80
2018-04-07T09:52:04.747Z,7.60
2018-04-07T09:54:31.422Z,8.47
2018-04-07T09:56:58.129Z,7.60
2018-04-07T09:59:24.901Z,7.90
2018-04-07T10:01:51.609Z,7.63
2018-04-07T10:04:18.347Z,7.67
2018-04-07T10:06:45.006Z,8.43
2018-04-07T10:09:11.692Z,8.03
2018-04-07T10:11:38.385Z,7.27
2018-04-07T10:14:05.073Z,8.33
2018-04-07T10:16:31.802Z,7.80
2018-04-07T10:18:58.512Z,7.03
2018-04-07T10:21:25.188Z,7.20
2018-04-07T10:23:51.893Z,7.87
2018-04-07T10:26:18.571Z,8.50
2018-04-07T10:28:45.274Z,7.87
2018-04-07T10:31:11.961Z,8.20
2018-04-07T10:33:38.665Z,7.93
2018-04-07T10:36:05.368Z,7.57
2018-04-07T10:38:32.064Z,8.67
2018-04-07T10:40:58.778Z,7.83
2018-04-07T10:43:25.481Z,7.90
2018-04-07T10:45:52.201Z,8.77
2018-04-07T10:48:18.933Z,8.20
2018-04-07T10:50:45.633Z,8.00
2018-04-07T10:53:12.333Z,8.13
2018-04-07T10:55:39.074Z,7.97
2018-04-07T10:58:05.772Z,8.10
2018-04-07T11:00:32.442Z,8.27
2018-04-07T11:02:59.182Z,9.20
2018-04-07T11:05:25.861Z,7.87
2018-04-07T11:07:52.573Z,8.03
2018-04-07T11:10:19.241Z,8.30
2018-04-07T11:12:45.935Z,8.43
2018-04-07T11:15:12.641Z,8.30
2018-04-07T11:17:39.336Z,8.60
2018-04-07T11:20:06.090Z,8.37
2018-04-07T11:22:32.917Z,8.53
2018-04-07T11:24:59.582Z,8.27
2018-04-07T11:27:26.280Z,8.37
2018-04-07T11:29:53.011Z,9.20
2018-04-07T11:32:19.705Z,8.00
2018-04-07T11:34:46.400Z,8.20
2018-04-07T11:37:13.083Z,8.93
2018-04-07T11:39:39.818Z,8.53
2018-04-07T11:42:06.495Z,8.93
2018-04-07T11:44:33.265Z,8.67
2018-04-07T11:47:00.016Z,9.20
2018-04-07T11:49:26.718Z,8.97
2018-04-07T11:51:53.421Z,8.17
2018-04-07T11:54:20.130Z,9.20
2018-04-07T11:56:46.839Z,8.97
2018-04-07T11:59:13.517Z,8.40
2018-04-07T12:01:40.201Z,8.60
2018-04-07T12:04:06.917Z,8.03
2018-04-07T12:06:33.638Z,7.90
2018-04-07T12:09:00.352Z,7.60
2018-04-07T12:11:27.067Z,8.30
2018-04-07T12:13:53.765Z,7.43
2018-04-07T12:16:20.424Z,7.80
2018-04-07T12:18:47.198Z,7.27
2018-04-07T12:21:13.834Z,8.90
2018-04-07T12:23:40.520Z,8.33
2018-04-07T12:26:07.220Z,8.10
2018-04-07T12:28:33.911Z,8.67
2018-04-07T12:31:00.587Z,8.40
2018-04-07T12:33:27.325Z,8.40
2018-04-07T12:35:54.041Z,7.90
2018-04-07T12:38:20.761Z,8.77
2018-04-07T12:40:47.449Z,7.37
2018-04-07T12:43:14.133Z,7.00
2018-04-07T12:45:40.822Z,7.73
2018-04-07T12:48:07.606Z,7.40
2018-04-07T12:50:34.302Z,8.20
2018-04-07T12:53:01.015Z,7.57
2018-04-07T12:55:27.697Z,7.07
2018-04-07T12:57:54.399Z,7.17
2018-04-07T13:00:21.101Z,6.50
2018-04-07T13:02:47.778Z,6.90
2018-04-07T13:05:14.582Z,6.30
2018-04-07T13:07:41.248Z,6.70
2018-04-07T13:10:07.939Z,5.97
2018-04-07T13:12:34.641Z,6.53
2018-04-07T13:15:01.340Z,5.50
2018-04-07T13:17:28.023Z,5.57
2018-04-07T13:19:54.710Z,6.73
2018-04-07T13:22:21.400Z,5.60
2018-04-07T13:24:48.069Z,5.23
2018-04-07T13:27:14.896Z,5.73
2018-04-07T13:29:41.587Z,5.80
2018-04-07T13:32:08.519Z,5.57
2018-04-07T13:34:35.203Z,5.53
2018-04-07T13:37:01.913Z,4.77
2018-04-07T13:39:28.614Z,5.83
2018-04-07T13:41:55.312Z,4.83
2018-04-07T13:44:22.009Z,4.30
2018-04-07T13:46:48.685Z,4.50
2018-04-07T13:49:15.479Z,3.90
2018-04-07T13:51:42.152Z,3.53
2018-04-07T13:54:08.873Z,5.33
2018-04-07T13:56:35.664Z,4.83
2018-04-07T13:59:02.402Z,4.80
2018-04-07T14:01:29.097Z,5.83
2018-04-07T14:03:55.987Z,4.03
2018-04-07T14:06:22.684Z,4.73
2018-04-07T14:08:49.384Z,4.70
2018-04-07T14:11:16.095Z,3.73
2018-04-07T14:13:42.821Z,4.63
2018-04-07T14:16:09.513Z,5.30
2018-04-07T14:18:36.192Z,4.90
2018-04-07T14:21:02.894Z,5.10
2018-04-07T14:23:29.605Z,4.20
2018-04-07T14:25:56.294Z,4.20
2018-04-07T14:28:23.001Z,5.23
2018-04-07T14:30:49.673Z,5.17
2018-04-07T14:33:16.402Z,5.10
2018-04-07T14:35:43.102Z,4.30
2018-04-07T14:38:09.776Z,3.90
2018-04-07T14:40:36.577Z,4.50
2018-04-07T14:43:03.286Z,4.20
2018-04-07T14:45:29.969Z,3.70
2018-04-07T14:47:56.892Z,3.93
2018-04-07T14:50:23.584Z,4.60
2018-04-07T14:52:50.343Z,5.03
2018-04-07T14:55:17.056Z,4.23
2018-04-07T14:57:43.749Z,5.27
2018-04-07T15:00:10.440Z,4.27
2018-04-07T15:02:37.103Z,5.67
2018-04-07T15:05:03.824Z,4.40
2018-04-07T15:07:30.509Z,4.13
2018-04-07T15:09:57.289Z,4.70
2018-04-07T15:12:23.988Z,4.80
2018-04-07T15:14:50.670Z,4.43
2018-04-07T15:17:17.350Z,4.67
2018-04-07T15:19:44.113Z,4.10
2018-04-07T15:22:10.747Z,3.70
2018-04-07T15:24:37.433Z,4.80
2018-04-07T15:27:04.154Z,4.20
2018-04-07T15:29:30.833Z,4.30
2018-04-07T15:31:57.546Z,4.70
2018-04-07T15:34:24.315Z,4.20
2018-04-07T15:36:51.004Z,4.30
2018-04-07T15:39:17.711Z,5.40
2018-04-07T15:41:44.405Z,4.90
2018-04-07T15:44:11.101Z,5.33
2018-04-07T15:46:37.780Z,4.40
2018-04-07T15:49:04.485Z,5.30
2018-04-07T15:51:31.206Z,5.03
2018-04-07T15:53:57.885Z,6.10
2018-04-07T15:56:24.588Z,4.23
2018-04-07T15:58:51.286Z,4.73
2018-04-07T16:01:17.990Z,4.70
2018-04-07T16:03:44.685Z,4.33
2018-04-07T16:06:11.360Z,4.80
2018-04-07T16:08:38.053Z,5.20
2018-04-07T16:11:04.801Z,5.10
2018-04-07T16:13:31.592Z,5.20
2018-04-07T16:15:58.333Z,5.77
2018-04-07T16:18:25.042Z,4.57
2018-04-07T16:20:51.969Z,5.07
2018-04-07T16:23:18.663Z,4.78
2018-04-07T16:25:45.379Z,5.40
2018-04-07T16:28:12.062Z,4.07
2018-04-07T16:30:38.761Z,5.17
2018-04-07T16:33:05.474Z,4.67
2018-04-07T16:35:32.178Z,4.40
2018-04-07T16:37:58.880Z,5.03
2018-04-07T16:40:25.650Z,6.47
2018-04-07T16:42:52.349Z,5.00
2018-04-07T16:45:19.045Z,5.17
2018-04-07T16:47:45.774Z,4.87
2018-04-07T16:50:12.447Z,4.20
2018-04-07T16:52:39.236Z,4.77
2018-04-07T16:55:05.936Z,4.27
2018-04-07T16:57:32.673Z,4.63
2018-04-07T16:59:59.345Z,3.77
2018-04-07T17:02:26.029Z,4.60
2018-04-07T17:04:52.731Z,5.30
2018-04-07T17:07:19.422Z,5.33
2018-04-07T17:09:46.114Z,6.80
2018-04-07T17:12:12.838Z,5.40
2018-04-07T17:14:39.537Z,5.70
2018-04-07T17:17:06.238Z,5.10
2018-04-07T17:19:32.930Z,4.93
2018-04-07T17:21:59.641Z,4.20
2018-04-07T17:24:26.481Z,4.17
2018-04-07T17:26:53.181Z,3.60
2018-04-07T17:29:19.894Z,3.90
2018-04-07T17:31:46.586Z,4.17
2018-04-07T17:34:13.311Z,3.83
2018-04-07T17:36:40.027Z,3.77
2018-04-07T17:39:06.703Z,4.30
2018-04-07T17:41:33.389Z,4.20
2018-04-07T17:44:00.072Z,4.33
2018-04-07T17:46:26.780Z,3.60
2018-04-07T17:49:05.989Z,3.97
2018-04-07T17:51:20.286Z,3.27
2018-04-07T17:53:46.998Z,3.70
2018-04-07T17:56:13.695Z,3.63
2018-04-07T17:58:40.394Z,4.10
2018-04-07T18:01:07.084Z,3.10
2018-04-07T18:03:33.802Z,3.50
2018-04-07T18:06:00.492Z,3.93
2018-04-07T18:08:27.220Z,3.47
2018-04-07T18:10:53.906Z,4.40
2018-04-07T18:13:20.653Z,4.30
2018-04-07T18:15:47.333Z,4.07
2018-04-07T18:18:14.049Z,5.27
2018-04-07T18:20:40.748Z,7.20
2018-04-07T18:23:07.466Z,5.47
2018-04-07T18:25:34.163Z,6.30
2018-04-07T18:28:00.842Z,4.63
2018-04-07T18:30:27.522Z,4.23
2018-04-07T18:32:54.386Z,3.50
2018-04-07T18:35:21.065Z,3.20
2018-04-07T18:37:47.768Z,3.40
2018-04-07T18:40:14.459Z,3.40
2018-04-07T18:42:41.170Z,3.90
2018-04-07T18:45:07.856Z,3.97
2018-04-07T18:47:34.546Z,3.53
2018-04-07T18:50:01.220Z,3.30
2018-04-07T18:52:27.971Z,4.10
2018-04-07T18:54:54.695Z,4.60
2018-04-07T18:57:21.377Z,3.53
2018-04-07T18:59:48.081Z,4.10
2018-04-07T19:02:14.781Z,3.97
2018-04-07T19:04:41.643Z,3.77
2018-04-07T19:07:08.337Z,4.07
2018-04-07T19:09:35.000Z,4.90
2018-04-07T19:12:01.916Z,4.50
2018-04-07T19:14:28.611Z,4.13
2018-04-07T19:16:55.839Z,5.33
2018-04-07T19:19:23.061Z,4.30
2018-04-07T19:21:49.782Z,5.13
2018-04-07T19:24:16.457Z,3.30
2018-04-07T19:26:43.173Z,5.07
2018-04-07T19:29:10.544Z,4.27
2018-04-07T19:31:37.281Z,3.87
2018-04-07T19:34:03.972Z,4.30
2018-04-07T19:36:30.678Z,5.03
2018-04-07T19:38:57.397Z,6.07
2018-04-07T19:41:25.168Z,6.00
2018-04-07T19:43:51.826Z,6.40
2018-04-07T19:46:18.543Z,5.50
2018-04-07T19:48:45.368Z,5.60
2018-04-07T19:51:12.057Z,5.17
2018-04-07T19:53:38.808Z,4.53
2018-04-07T19:56:05.680Z,5.60
2018-04-07T19:58:32.437Z,4.60
2018-04-07T20:00:59.138Z,4.40
2018-04-07T20:03:25.831Z,3.90
2018-04-07T20:05:52.541Z,4.60
2018-04-07T20:08:19.243Z,4.50
2018-04-07T20:10:45.944Z,3.47
2018-04-07T20:13:12.632Z,3.63
2018-04-07T20:15:39.460Z,2.97
2018-04-07T20:18:06.150Z,4.33
2018-04-07T20:20:32.905Z,3.30
2018-04-07T20:22:59.609Z,3.83
2018-04-07T20:25:26.325Z,3.80
2018-04-07T20:27:53.000Z,4.07
2018-04-07T20:30:19.716Z,4.43
2018-04-07T20:32:46.408Z,3.40
2018-04-07T20:35:13.140Z,3.80
2018-04-07T20:37:39.880Z,4.80
2018-04-07T20:40:06.580Z,4.20
2018-04-07T20:42:33.310Z,4.03
2018-04-07T20:44:59.995Z,3.70
2018-04-07T20:47:26.737Z,3.47
2018-04-07T20:49:53.413Z,4.37
2018-04-07T20:52:20.111Z,3.80
2018-04-07T20:54:46.862Z,4.23
2018-04-07T20:57:13.667Z,4.60
2018-04-07T20:59:40.360Z,4.03
2018-04-07T21:02:07.061Z,5.13
2018-04-07T21:04:33.769Z,3.90
2018-04-07T21:07:00.469Z,4.07
2018-04-07T21:09:27.304Z,4.47
2018-04-07T21:11:54.208Z,3.70
2018-04-07T21:14:20.995Z,4.83
2018-04-07T21:16:47.688Z,4.13
2018-04-07T21:19:14.382Z,3.70
2018-04-07T21:21:41.246Z,4.23
2018-04-07T21:24:07.915Z,5.33
2018-04-07T21:26:34.608Z,4.20
2018-04-07T21:29:01.309Z,4.10
2018-04-07T21:31:28.033Z,4.60
2018-04-07T21:33:54.742Z,4.10
2018-04-07T21:36:21.429Z,4.57
2018-04-07T21:38:48.120Z,4.60
2018-04-07T21:41:14.835Z,6.67
2018-04-07T21:43:41.532Z,5.63
2018-04-07T21:46:08.227Z,4.50
2018-04-07T21:48:34.948Z,5.00
2018-04-07T21:51:01.611Z,5.60
2018-04-07T21:53:28.290Z,4.87
2018-04-07T21:55:55.036Z,5.90
2018-04-07T21:58:21.743Z,5.07
2018-04-07T22:00:48.476Z,4.97
2018-04-07T22:03:15.149Z,5.13
2018-04-07T22:05:41.829Z,4.60
2018-04-07T22:08:08.513Z,3.97
2018-04-07T22:10:35.192Z,5.00
2018-04-07T22:13:02.013Z,4.80
2018-04-07T22:15:28.812Z,5.27
2018-04-07T22:17:55.497Z,5.00
2018-04-07T22:20:22.197Z,4.67
2018-04-07T22:22:48.872Z,4.60
2018-04-07T22:25:15.563Z,5.23
2018-04-07T22:27:42.241Z,5.00
2018-04-07T22:30:08.949Z,4.63
2018-04-07T22:32:35.616Z,4.90
2018-04-07T22:35:02.301Z,5.10
2018-04-07T22:37:29.001Z,5.73
2018-04-07T22:39:55.762Z,4.57
2018-04-07T22:42:22.492Z,4.83
2018-04-07T22:44:49.157Z,4.93
2018-04-07T22:47:15.876Z,5.60
2018-04-07T22:49:42.542Z,4.83
2018-04-07T22:52:09.229Z,5.37
2018-04-07T22:54:35.958Z,5.90
2018-04-07T22:57:02.624Z,6.60
2018-04-07T22:59:29.330Z,6.70
2018-04-07T23:01:56.020Z,5.80
2018-04-07T23:04:22.710Z,5.03
2018-04-07T23:06:49.406Z,5.23
2018-04-07T23:09:16.142Z,5.37
2018-04-07T23:11:42.820Z,5.20
2018-04-07T23:14:09.540Z,6.00
2018-04-07T23:16:36.208Z,6.33
2018-04-07T23:19:02.898Z,6.30
2018-04-07T23:21:29.599Z,5.50
2018-04-07T23:23:56.293Z,6.30
2018-04-07T23:26:23.001Z,5.50
2018-04-07T23:28:49.682Z,6.83
2018-04-07T23:31:16.357Z,6.07
2018-04-07T23:33:43.260Z,6.63
2018-04-07T23:36:09.976Z,5.40
2018-04-07T23:38:36.619Z,6.90
2018-04-07T23:41:03.340Z,7.60
2018-04-07T23:43:30.025Z,6.27
2018-04-07T23:45:56.785Z,7.57
2018-04-07T23:48:23.477Z,6.90
2018-04-07T23:50:50.188Z,7.77
2018-04-07T23:53:16.902Z,7.30
2018-04-07T23:55:43.576Z,6.47
2018-04-07T23:58:10.252Z,6.60
